createdAt,value
2023-01-13T00:01:47.496Z,30.42
2023-01-13T00:04:14.382Z,29.13
2023-01-13T00:06:41.280Z,28.00
2023-01-13T00:09:08.218Z,26.67
2023-01-13T00:11:35.134Z,28.35
2023-01-13T00:14:01.981Z,27.35
2023-01-13T00:16:28.862Z,28.73
2023-01-13T00:18:55.781Z,30.52
2023-01-13T00:21:24.738Z,26.98
2023-01-13T00:23:55.493Z,27.38
2023-01-13T00:26:27.652Z,25.00
2023-01-13T00:28:58.748Z,23.42
2023-01-13T00:31:26.732Z,25.35
2023-01-13T00:33:55.935Z,22.50
2023-01-13T00:36:22.811Z,22.60
2023-01-13T00:38:49.793Z,22.95
2023-01-13T00:41:22.223Z,22.40
2023-01-13T00:43:49.767Z,24.52
2023-01-13T00:46:19.318Z,24.67
2023-01-13T00:48:47.243Z,26.60
2023-01-13T00:51:20.359Z,20.90
2023-01-13T00:53:49.671Z,26.38
2023-01-13T00:56:22.131Z,29.30
2023-01-13T00:58:58.812Z,21.92
2023-01-13T01:01:26.105Z,36.35
2023-01-13T01:03:54.622Z,28.45
2023-01-13T01:06:24.364Z,23.67
2023-01-13T01:08:52.234Z,26.23
2023-01-13T01:11:28.526Z,24.45
2023-01-13T01:13:57.979Z,22.02
2023-01-13T01:16:27.673Z,22.70
2023-01-13T01:18:56.199Z,20.67
2023-01-13T01:21:24.942Z,19.60
2023-01-13T01:23:51.887Z,24.13
2023-01-13T01:26:24.424Z,27.10
2023-01-13T01:28:51.920Z,22.05
2023-01-13T01:31:27.359Z,24.15
2023-01-13T01:33:55.213Z,22.08
2023-01-13T01:36:24.033Z,28.52
2023-01-13T01:38:50.971Z,25.40
2023-01-13T01:41:23.893Z,23.77
2023-01-13T01:44:03.998Z,23.08
2023-01-13T01:46:42.525Z,26.17
2023-01-13T01:49:18.162Z,24.00
2023-01-13T01:51:58.736Z,19.65
2023-01-13T01:54:37.383Z,20.80
2023-01-13T01:57:05.181Z,27.77
2023-01-13T01:59:33.167Z,25.30
2023-01-13T02:02:00.507Z,22.02
2023-01-13T02:04:40.793Z,25.23
2023-01-13T02:07:08.144Z,22.45
2023-01-13T02:09:36.760Z,25.02
2023-01-13T02:12:22.173Z,26.80
2023-01-13T02:14:49.098Z,20.80
2023-01-13T02:17:22.090Z,25.67
2023-01-13T02:20:10.463Z,21.67
2023-01-13T02:23:46.193Z,23.80
2023-01-13T02:26:40.153Z,19.85
2023-01-13T02:30:03.250Z,24.10
2023-01-13T02:32:35.907Z,21.00
2023-01-13T02:35:12.414Z,22.55
2023-01-13T02:37:42.748Z,23.00
2023-01-13T02:40:13.182Z,22.15
2023-01-13T02:43:16.458Z,21.63
2023-01-13T02:46:05.177Z,26.88
2023-01-13T02:48:33.094Z,22.13
2023-01-13T02:51:08.090Z,25.45
2023-01-13T02:53:43.327Z,21.98
2023-01-13T02:56:12.175Z,24.63
2023-01-13T02:58:41.039Z,31.65
2023-01-13T03:01:08.001Z,28.75
2023-01-13T03:03:36.551Z,24.08
2023-01-13T03:06:29.991Z,20.67
2023-01-13T03:08:59.806Z,22.85
2023-01-13T03:11:32.747Z,22.75
2023-01-13T03:14:19.648Z,22.38
2023-01-13T03:16:57.179Z,25.58
2023-01-13T03:19:44.382Z,26.30
2023-01-13T03:22:20.033Z,24.98
2023-01-13T03:24:57.561Z,22.83
2023-01-13T03:27:56.635Z,22.67
2023-01-13T03:30:38.498Z,23.35
2023-01-13T03:33:11.608Z,21.33
2023-01-13T03:35:45.999Z,25.90
2023-01-13T03:38:18.505Z,23.83
2023-01-13T03:40:53.833Z,23.98
2023-01-13T03:43:47.098Z,23.25
2023-01-13T03:46:19.938Z,24.27
2023-01-13T03:48:50.570Z,26.80
2023-01-13T03:51:19.654Z,25.05
2023-01-13T03:53:51.485Z,30.20
2023-01-13T03:56:44.385Z,26.02
2023-01-13T03:59:17.570Z,24.52
2023-01-13T04:02:09.939Z,23.05
2023-01-13T04:04:49.608Z,25.63
2023-01-13T04:07:20.828Z,21.55
2023-01-13T04:09:56.087Z,23.75
2023-01-13T04:12:49.567Z,24.92
2023-01-13T04:15:31.207Z,24.02
2023-01-13T04:18:17.870Z,25.77
2023-01-13T04:20:46.617Z,25.50
2023-01-13T04:23:14.021Z,31.27
2023-01-13T04:25:42.275Z,24.83
2023-01-13T04:28:09.797Z,28.20
2023-01-13T04:30:37.391Z,26.60
2023-01-13T04:33:05.586Z,27.35
2023-01-13T04:35:34.393Z,26.52
2023-01-13T04:38:07.176Z,23.88
2023-01-13T04:40:34.139Z,22.83
2023-01-13T04:43:01.191Z,28.00
2023-01-13T04:45:28.035Z,24.38
2023-01-13T04:47:55.030Z,26.88
2023-01-13T04:50:22.835Z,22.42
2023-01-13T04:52:50.904Z,25.40
2023-01-13T04:55:18.988Z,22.25
2023-01-13T04:57:45.884Z,30.58
2023-01-13T05:00:15.093Z,25.50
2023-01-13T05:02:42.087Z,32.35
2023-01-13T05:05:09.821Z,38.40
2023-01-13T05:07:36.993Z,170.75
2023-01-13T05:10:04.046Z,129.13
2023-01-13T05:12:49.600Z,128.45
2023-01-13T05:15:35.159Z,86.15
2023-01-13T05:18:02.564Z,68.15
2023-01-13T05:20:29.476Z,39.55
2023-01-13T05:23:31.707Z,34.38
2023-01-13T05:25:58.601Z,26.00
2023-01-13T05:28:25.478Z,25.70
2023-01-13T05:30:52.685Z,30.33
2023-01-13T05:33:22.931Z,25.95
2023-01-13T05:35:49.915Z,30.52
2023-01-13T05:38:18.092Z,31.48
2023-01-13T05:41:04.082Z,31.85
2023-01-13T05:43:33.043Z,27.98
2023-01-13T05:46:06.940Z,26.13
2023-01-13T05:48:39.178Z,29.05
2023-01-13T05:51:08.295Z,32.03
2023-01-13T05:53:35.682Z,25.67
2023-01-13T05:56:07.213Z,29.38
2023-01-13T05:58:34.347Z,35.13
2023-01-13T06:01:02.922Z,29.30
2023-01-13T06:03:30.114Z,33.28
2023-01-13T06:05:59.519Z,29.30
2023-01-13T06:08:26.868Z,28.27
2023-01-13T06:10:53.840Z,31.48
2023-01-13T06:13:20.801Z,29.33
2023-01-13T06:15:47.788Z,28.92
2023-01-13T06:18:14.837Z,31.85
2023-01-13T06:20:41.676Z,33.00
2023-01-13T06:23:10.949Z,33.03
2023-01-13T06:25:37.812Z,30.88
2023-01-13T06:28:04.878Z,35.55
2023-01-13T06:30:38.802Z,35.35
2023-01-13T06:33:09.801Z,35.25
2023-01-13T06:35:38.591Z,30.77
2023-01-13T06:38:10.981Z,31.98
2023-01-13T06:40:38.140Z,37.30
2023-01-13T06:43:17.723Z,34.45
2023-01-13T06:45:46.835Z,34.35
2023-01-13T06:48:14.337Z,34.28
2023-01-13T06:50:42.301Z,30.50
2023-01-13T06:53:09.678Z,36.25
2023-01-13T06:55:36.759Z,29.42
2023-01-13T06:58:03.827Z,32.85
2023-01-13T07:00:32.451Z,33.88
2023-01-13T07:03:13.501Z,30.90
2023-01-13T07:05:41.795Z,33.65
2023-01-13T07:08:10.012Z,31.13
2023-01-13T07:10:37.641Z,34.03
2023-01-13T07:13:24.037Z,33.80
2023-01-13T07:15:55.022Z,33.13
2023-01-13T07:18:21.994Z,30.13
2023-01-13T07:20:53.659Z,36.97
2023-01-13T07:25:47.671Z,31.98
2023-01-13T07:28:14.836Z,31.73
2023-01-13T07:30:41.843Z,36.45
2023-01-13T07:33:09.142Z,33.13
2023-01-13T07:35:35.987Z,33.53
2023-01-13T07:38:02.995Z,32.15
2023-01-13T07:40:29.895Z,32.83
2023-01-13T07:43:15.151Z,33.92
2023-01-13T07:45:42.210Z,36.90
2023-01-13T07:48:09.099Z,36.40
2023-01-13T07:50:35.947Z,35.95
2023-01-13T07:53:02.877Z,34.65
2023-01-13T07:55:29.864Z,36.85
2023-01-13T07:57:56.829Z,38.85
2023-01-13T08:00:24.020Z,35.88
2023-01-13T08:02:50.931Z,38.90
2023-01-13T08:05:18.250Z,37.60
2023-01-13T08:07:45.088Z,35.22
2023-01-13T08:10:12.113Z,38.22
2023-01-13T08:12:57.504Z,40.15
2023-01-13T08:15:24.390Z,35.13
2023-01-13T08:17:51.273Z,35.40
2023-01-13T08:20:18.524Z,33.28
2023-01-13T08:22:45.482Z,35.65
2023-01-13T08:25:12.341Z,35.00
2023-01-13T08:27:39.946Z,38.25
2023-01-13T08:30:07.661Z,36.65
2023-01-13T08:32:34.519Z,38.22
2023-01-13T08:35:01.401Z,37.70
2023-01-13T08:37:28.336Z,33.60
2023-01-13T08:39:55.166Z,37.42
2023-01-13T08:42:21.960Z,37.42
2023-01-13T08:44:48.813Z,40.38
2023-01-13T08:47:15.684Z,40.55
2023-01-13T08:49:42.582Z,45.22
2023-01-13T08:52:09.704Z,39.00
2023-01-13T08:54:38.762Z,38.33
2023-01-13T08:57:05.999Z,31.02
2023-01-13T08:59:33.479Z,37.55
2023-01-13T09:02:00.777Z,38.85
2023-01-13T09:04:28.663Z,43.55
2023-01-13T09:06:57.138Z,39.03
2023-01-13T09:09:25.471Z,40.72
2023-01-13T09:12:11.010Z,47.03
2023-01-13T09:14:39.262Z,55.78
2023-01-13T09:17:07.489Z,78.53
2023-01-13T09:19:34.561Z,62.08
2023-01-13T09:22:01.418Z,56.10
2023-01-13T09:24:28.534Z,54.42
2023-01-13T09:26:55.432Z,49.17
2023-01-13T09:29:22.536Z,48.75
2023-01-13T09:31:49.428Z,50.65
2023-01-13T09:34:37.734Z,45.10
2023-01-13T09:37:06.456Z,44.35
2023-01-13T09:39:34.657Z,35.10
2023-01-13T09:43:01.034Z,27.65
2023-01-13T09:45:34.704Z,27.02
2023-01-13T09:48:34.972Z,28.73
2023-01-13T09:51:01.865Z,27.08
2023-01-13T09:53:37.259Z,30.30
2023-01-13T09:56:05.126Z,27.60
2023-01-13T09:58:33.313Z,29.42
2023-01-13T10:01:42.582Z,27.17
2023-01-13T10:04:14.975Z,26.23
2023-01-13T10:06:48.249Z,24.77
2023-01-13T10:09:22.898Z,26.60
2023-01-13T10:12:09.327Z,26.58
2023-01-13T10:14:51.846Z,24.70
2023-01-13T10:17:39.960Z,23.23
2023-01-13T10:20:41.761Z,28.25
2023-01-13T10:23:08.793Z,25.75
2023-01-13T10:26:07.701Z,24.80
2023-01-13T10:28:34.603Z,24.48
2023-01-13T10:31:03.152Z,22.75
2023-01-13T10:33:30.139Z,23.42
2023-01-13T10:35:59.229Z,24.10
2023-01-13T10:38:43.293Z,24.55
2023-01-13T10:41:18.696Z,22.17
2023-01-13T10:43:59.625Z,24.42
2023-01-13T10:46:27.053Z,23.23
2023-01-13T10:48:58.464Z,22.35
2023-01-13T10:51:39.785Z,20.52
2023-01-13T10:54:15.142Z,25.05
2023-01-13T10:56:43.803Z,20.38
2023-01-13T10:59:27.127Z,20.27
2023-01-13T11:02:25.189Z,21.83
2023-01-13T11:04:56.253Z,24.85
2023-01-13T11:07:34.169Z,21.60
2023-01-13T11:10:22.153Z,24.48
2023-01-13T11:12:54.670Z,20.85
2023-01-13T11:15:28.759Z,18.73
2023-01-13T11:18:09.427Z,16.38
2023-01-13T11:20:42.306Z,22.17
2023-01-13T11:23:35.472Z,18.77
2023-01-13T11:26:09.239Z,19.75
2023-01-13T11:29:02.294Z,21.00
2023-01-13T11:31:44.091Z,18.70
2023-01-13T11:36:52.120Z,16.33
2023-01-13T11:39:26.354Z,18.73
2023-01-13T11:42:17.614Z,17.20
2023-01-13T11:45:06.906Z,18.35
2023-01-13T11:47:35.132Z,19.70
2023-01-13T11:50:02.788Z,16.88
2023-01-13T11:52:38.617Z,21.38
2023-01-13T11:55:31.630Z,23.55
2023-01-13T11:58:23.874Z,23.42
2023-01-13T12:01:08.809Z,19.67
2023-01-13T12:03:43.309Z,20.77
2023-01-13T12:06:28.207Z,24.05
2023-01-13T12:09:11.967Z,28.48
2023-01-13T12:12:20.089Z,26.00
2023-01-13T12:15:03.057Z,26.77
2023-01-13T12:18:07.135Z,23.70
2023-01-13T12:20:58.586Z,28.58
2023-01-13T12:24:14.344Z,27.27
2023-01-13T12:26:47.773Z,24.65
2023-01-13T12:29:19.069Z,24.58
2023-01-13T12:31:49.244Z,24.40
2023-01-13T12:34:53.209Z,20.63
2023-01-13T12:37:26.678Z,19.38
2023-01-13T12:40:01.668Z,19.50
2023-01-13T12:43:12.137Z,22.23
2023-01-13T12:45:39.025Z,24.27
2023-01-13T12:48:06.274Z,22.42
2023-01-13T12:50:36.666Z,25.67
2023-01-13T12:53:29.464Z,23.50
2023-01-13T12:56:26.327Z,21.42
2023-01-13T12:58:53.224Z,18.30
2023-01-13T13:01:35.600Z,33.20
2023-01-13T13:04:14.123Z,21.48
2023-01-13T13:07:16.540Z,20.63
2023-01-13T13:09:48.066Z,21.02
2023-01-13T13:13:13.521Z,55.75
2023-01-13T13:15:40.731Z,19.63
2023-01-13T13:18:25.116Z,18.00
2023-01-13T13:20:59.189Z,21.25
2023-01-13T13:23:44.146Z,21.23
2023-01-13T13:26:31.756Z,20.25
2023-01-13T13:29:19.453Z,17.92
2023-01-13T13:32:27.805Z,22.17
2023-01-13T13:35:40.364Z,19.55
2023-01-13T13:39:09.537Z,22.48
2023-01-13T13:42:01.028Z,19.20
2023-01-13T13:44:54.030Z,17.58
2023-01-13T13:47:20.921Z,18.38
2023-01-13T13:49:53.671Z,18.13
2023-01-13T13:52:43.123Z,21.50
2023-01-13T13:55:19.105Z,19.30
2023-01-13T13:57:54.619Z,17.40
2023-01-13T14:00:21.607Z,18.60
2023-01-13T14:03:04.095Z,18.25
2023-01-13T14:05:36.247Z,20.15
2023-01-13T14:08:17.022Z,16.58
2023-01-13T14:10:45.998Z,19.95
2023-01-13T14:13:20.154Z,18.13
2023-01-13T14:15:49.436Z,18.67
2023-01-13T14:18:19.676Z,19.02
2023-01-13T14:20:54.621Z,18.08
2023-01-13T14:23:28.441Z,20.45
2023-01-13T14:26:00.704Z,18.10
2023-01-13T14:28:40.755Z,19.23
2023-01-13T14:31:09.309Z,18.15
2023-01-13T14:33:44.901Z,19.88
2023-01-13T14:36:33.282Z,17.50
2023-01-13T14:39:05.913Z,16.65
2023-01-13T14:41:47.630Z,21.25
2023-01-13T14:44:31.057Z,19.17
2023-01-13T14:47:00.589Z,21.65
2023-01-13T14:49:41.526Z,18.40
2023-01-13T14:52:23.616Z,23.47
2023-01-13T14:55:10.134Z,19.17
2023-01-13T14:57:39.663Z,18.15
2023-01-13T15:00:15.606Z,20.13
2023-01-13T15:02:57.488Z,18.52
2023-01-13T15:05:27.623Z,17.67
2023-01-13T15:08:01.968Z,21.02
2023-01-13T15:10:38.576Z,18.02
2023-01-13T15:13:07.512Z,18.33
2023-01-13T15:15:36.790Z,16.05
2023-01-13T15:18:15.305Z,16.13
2023-01-13T15:20:42.690Z,18.10
2023-01-13T15:23:09.697Z,16.80
2023-01-13T15:25:41.734Z,19.98
2023-01-13T15:28:25.032Z,17.90
2023-01-13T15:30:54.405Z,23.67
2023-01-13T15:33:22.447Z,26.92
2023-01-13T15:35:52.529Z,23.08
2023-01-13T15:38:21.656Z,18.38
2023-01-13T15:40:50.585Z,20.92
2023-01-13T15:43:42.703Z,17.30
2023-01-13T15:46:33.629Z,17.08
2023-01-13T15:49:13.600Z,17.65
2023-01-13T15:51:40.543Z,18.05
2023-01-13T15:54:10.364Z,19.20
2023-01-13T15:56:38.983Z,20.80
2023-01-13T15:59:17.525Z,18.60
2023-01-13T16:01:45.500Z,21.02
2023-01-13T16:04:12.462Z,24.58
2023-01-13T16:06:39.336Z,19.52
2023-01-13T16:09:06.704Z,38.08
2023-01-13T16:11:33.699Z,35.50
2023-01-13T16:14:00.637Z,26.23
2023-01-13T16:16:29.018Z,24.60
2023-01-13T16:18:56.792Z,24.08
2023-01-13T16:21:24.441Z,25.45
2023-01-13T16:23:52.161Z,23.42
2023-01-13T16:26:25.294Z,21.92
2023-01-13T16:28:54.479Z,23.63
2023-01-13T16:31:33.048Z,28.15
2023-01-13T16:34:02.197Z,22.63
2023-01-13T16:36:30.828Z,22.38
2023-01-13T16:38:57.659Z,23.65
2023-01-13T16:41:27.292Z,21.45
2023-01-13T16:43:54.453Z,26.23
2023-01-13T16:46:29.322Z,24.42
2023-01-13T16:48:58.059Z,23.75
2023-01-13T16:51:25.168Z,23.08
2023-01-13T16:53:52.176Z,24.85
2023-01-13T16:56:24.954Z,23.55
2023-01-13T16:58:53.647Z,24.38
2023-01-13T17:01:29.385Z,21.20
2023-01-13T17:03:57.519Z,21.08
2023-01-13T17:06:35.668Z,23.45
2023-01-13T17:09:07.999Z,20.58
2023-01-13T17:11:34.891Z,23.75
2023-01-13T17:14:18.587Z,20.90
2023-01-13T17:16:46.903Z,24.10
2023-01-13T17:19:14.472Z,23.73
2023-01-13T17:21:42.295Z,24.25
2023-01-13T17:24:10.728Z,23.92
2023-01-13T17:26:44.046Z,20.02
2023-01-13T17:29:14.714Z,23.77
2023-01-13T17:31:42.078Z,21.63
2023-01-13T17:34:10.227Z,24.88
2023-01-13T17:36:37.076Z,25.33
2023-01-13T17:39:03.998Z,22.05
2023-01-13T17:41:30.884Z,21.25
2023-01-13T17:43:57.685Z,18.60
2023-01-13T17:46:24.581Z,26.90
2023-01-13T17:48:53.669Z,25.17
2023-01-13T17:51:22.762Z,22.17
2023-01-13T17:53:49.857Z,20.52
2023-01-13T17:56:17.803Z,21.98
2023-01-13T17:58:46.777Z,20.02
2023-01-13T18:01:17.293Z,26.63
2023-01-13T18:03:44.396Z,20.90
2023-01-13T18:06:22.174Z,22.98
2023-01-13T18:08:49.677Z,21.77
2023-01-13T18:11:21.476Z,23.30
2023-01-13T18:13:49.855Z,23.20
2023-01-13T18:16:19.041Z,23.45
2023-01-13T18:18:49.089Z,22.55
2023-01-13T18:21:43.848Z,21.10
2023-01-13T18:24:34.839Z,19.27
2023-01-13T18:27:23.024Z,21.15
2023-01-13T18:29:52.616Z,19.05
2023-01-13T18:32:20.981Z,19.73
2023-01-13T18:34:48.967Z,21.00
2023-01-13T18:37:17.038Z,22.50
2023-01-13T18:39:44.087Z,25.58
2023-01-13T18:42:30.127Z,23.00
2023-01-13T18:44:57.909Z,27.52
2023-01-13T18:47:26.312Z,25.98
2023-01-13T18:49:53.139Z,27.02
2023-01-13T18:52:20.009Z,26.30
2023-01-13T18:54:47.626Z,22.08
2023-01-13T18:57:15.653Z,22.95
2023-01-13T18:59:42.549Z,21.80
2023-01-13T19:02:18.881Z,23.95
2023-01-13T19:04:46.272Z,20.52
2023-01-13T19:07:21.887Z,18.40
2023-01-13T19:09:51.825Z,20.02
2023-01-13T19:12:26.035Z,20.05
2023-01-13T19:14:54.871Z,19.77
2023-01-13T19:17:23.707Z,20.98
2023-01-13T19:19:53.727Z,23.05
2023-01-13T19:22:23.485Z,22.02
2023-01-13T19:24:50.768Z,21.98
2023-01-13T19:27:18.852Z,22.27
2023-01-13T19:29:51.984Z,22.27
2023-01-13T19:32:21.971Z,22.33
2023-01-13T19:34:51.096Z,19.52
2023-01-13T19:37:18.273Z,21.40
2023-01-13T19:39:45.177Z,23.00
2023-01-13T19:42:32.116Z,22.30
2023-01-13T19:45:17.754Z,21.70
2023-01-13T19:47:45.823Z,21.83
2023-01-13T19:50:13.688Z,22.48
2023-01-13T19:52:41.714Z,22.35
2023-01-13T19:55:09.884Z,20.58
2023-01-13T19:57:38.275Z,22.25
2023-01-13T20:00:08.957Z,21.50
2023-01-13T20:02:37.026Z,19.92
2023-01-13T20:05:06.626Z,22.30
2023-01-13T20:07:35.158Z,21.95
2023-01-13T20:10:02.711Z,21.75
2023-01-13T20:12:29.915Z,20.58
2023-01-13T20:14:57.178Z,22.52
2023-01-13T20:17:25.878Z,23.15
2023-01-13T20:19:53.016Z,20.73
2023-01-13T20:22:20.291Z,18.77
2023-01-13T20:24:47.193Z,20.33
2023-01-13T20:27:14.064Z,21.35
2023-01-13T20:29:40.947Z,21.27
2023-01-13T20:32:07.794Z,21.92
2023-01-13T20:34:34.828Z,25.48
2023-01-13T20:37:01.811Z,21.48
2023-01-13T20:39:28.681Z,22.73
2023-01-13T20:42:14.342Z,21.65
2023-01-13T20:44:41.461Z,29.92
2023-01-13T20:47:08.362Z,27.67
2023-01-13T20:49:38.100Z,24.08
2023-01-13T20:52:09.525Z,21.40
2023-01-13T20:54:37.928Z,20.38
2023-01-13T20:57:06.623Z,19.80
2023-01-13T20:59:34.090Z,20.02
2023-01-13T21:02:01.014Z,19.15
2023-01-13T21:04:28.841Z,20.88
2023-01-13T21:06:56.320Z,20.25
2023-01-13T21:09:24.315Z,22.38
2023-01-13T21:12:10.242Z,22.23
2023-01-13T21:14:55.664Z,19.98
2023-01-13T21:17:41.607Z,17.77
2023-01-13T21:20:10.599Z,20.70
2023-01-13T21:22:38.982Z,16.58
2023-01-13T21:25:06.672Z,24.55
2023-01-13T21:27:34.718Z,19.60
2023-01-13T21:30:01.581Z,20.25
2023-01-13T21:32:28.674Z,17.77
2023-01-13T21:34:55.554Z,16.13
2023-01-13T21:37:22.440Z,18.50
2023-01-13T21:39:49.285Z,16.98
2023-01-13T21:42:36.289Z,21.40
2023-01-13T21:45:22.272Z,19.08
2023-01-13T21:47:49.983Z,17.25
2023-01-13T21:50:18.233Z,20.33
2023-01-13T21:52:45.891Z,19.55
2023-01-13T21:55:40.228Z,20.92
2023-01-13T21:58:12.810Z,22.30
2023-01-13T22:00:42.287Z,21.42
2023-01-13T22:03:10.565Z,21.27
2023-01-13T22:05:38.260Z,25.63
2023-01-13T22:08:05.970Z,22.30
2023-01-13T22:10:34.307Z,23.67
2023-01-13T22:13:22.570Z,22.40
2023-01-13T22:15:49.508Z,24.42
2023-01-13T22:18:18.266Z,23.45
2023-01-13T22:20:45.798Z,24.58
2023-01-13T22:23:12.736Z,25.92
2023-01-13T22:25:39.626Z,22.10
2023-01-13T22:28:09.036Z,23.88
2023-01-13T22:30:35.994Z,22.95
2023-01-13T22:33:02.871Z,23.75
2023-01-13T22:35:29.875Z,22.55
2023-01-13T22:37:56.764Z,24.90
2023-01-13T22:40:23.760Z,25.17
2023-01-13T22:42:50.605Z,26.50
2023-01-13T22:45:17.580Z,23.17
2023-01-13T22:47:44.391Z,25.40
2023-01-13T22:50:12.701Z,24.92
2023-01-13T22:52:39.894Z,23.55
2023-01-13T22:55:07.554Z,25.38
2023-01-13T22:57:46.761Z,23.45
2023-01-13T23:00:15.147Z,23.58
2023-01-13T23:02:42.086Z,25.60
2023-01-13T23:05:09.071Z,25.10
2023-01-13T23:07:36.259Z,24.52
2023-01-13T23:10:04.009Z,23.67
2023-01-13T23:12:30.831Z,27.40
2023-01-13T23:14:57.689Z,27.40
2023-01-13T23:17:24.540Z,26.20
2023-01-13T23:19:51.410Z,30.83
2023-01-13T23:22:18.265Z,24.92
2023-01-13T23:24:45.633Z,25.40
2023-01-13T23:27:12.513Z,23.98
2023-01-13T23:29:39.295Z,23.33
2023-01-13T23:32:06.287Z,22.13
2023-01-13T23:34:33.170Z,24.73
2023-01-13T23:37:00.048Z,22.75
2023-01-13T23:39:26.949Z,24.92
2023-01-13T23:41:54.534Z,26.13
2023-01-13T23:44:21.432Z,26.67
2023-01-13T23:46:48.275Z,23.95
2023-01-13T23:49:15.115Z,22.85
2023-01-13T23:51:42.027Z,26.90
2023-01-13T23:54:08.833Z,22.95
2023-01-13T23:56:39.462Z,22.30
2023-01-13T23:59:06.538Z,24.77
